Eurus Lima — A8MH9 — position and weather

sailwx.info

Track history (hours):
 
Tides and Currents Weather Stations Pressure Air Temp Water Temp Dewpoint Dewpoint Depression Visibility Wind Speed Wind Dir Waves Ship Positions

Eurus Lima (Liberia)

Last reported at 2014-Jul-24 10:18 UTC. Time now 2014-Aug-21 19:58 UTC.
Position N 25°21' W 080°02'.
Warning: this ship's position is 28 days out of date.

Type: Ship. MMSI: 636013342.

Date/timePositionNaut miles runAvg speedWind from/ knotsBaromVisibWave heightAir tempDewpointWater temp
2014-Jul-24 10:18N 25°21' W 080°02'1216.2
2014-Jul-24 09:33N 25°33' W 080°02'1716.7
2014-Jul-24 08:33N 25°50' W 080°03'1515.2
2014-Jul-24 07:34N 26°05' W 080°04'3 2.2
2014-Jul-24 06:25N 26°05' W 080°07'0 0.0
2014-Jul-24 05:31N 26°05' W 080°07'0 0.0
2014-Jul-24 04:27N 26°05' W 080°07'0 0.0
2014-Jul-24 03:33N 26°05' W 080°07'0 0.0
2014-Jul-24 02:32N 26°05' W 080°07'0 0.0
2014-Jul-24 01:23N 26°05' W 080°07'0 0.0
2014-Jul-24 00:31N 26°05' W 080°07'0 0.0
2014-Jul-23 23:28N 26°05' W 080°07'0 0.0
2014-Jul-23 22:30N 26°05' W 080°07'0 0.0
2014-Jul-23 21:30N 26°05' W 080°07'0 0.0
2014-Jul-23 20:33N 26°05' W 080°07'0 0.0
2014-Jul-23 19:32N 26°05' W 080°07'0 0.0
2014-Jul-23 18:23N 26°05' W 080°07'0 0.0
2014-Jul-23 17:31N 26°05' W 080°07'0 0.0
2014-Jul-23 16:25N 26°05' W 080°07'0 0.0
2014-Jul-23 15:18N 26°05' W 080°07'0 0.0
2014-Jul-23 14:30N 26°05' W 080°07'0 0.0
2014-Jul-23 13:33N 26°05' W 080°07'0 0.0
2014-Jul-23 12:32N 26°05' W 080°07'0 0.0
2014-Jul-23 11:25N 26°05' W 080°07'0 0.0
2014-Jul-23 10:31N 26°05' W 080°07'0 0.0
2014-Jul-23 09:25N 26°05' W 080°07'1 0.8
2014-Jul-23 08:34N 26°06' W 080°07'5 5.0
2014-Jul-23 07:33N 26°05' W 080°01'7 7.5
2014-Jul-23 06:34N 26°08' W 079°54'5 4.6
2014-Jul-23 05:34N 26°03' W 079°53'4 4.5
2014-Jul-23 04:33N 25°59' W 079°53'4 4.4
2014-Jul-23 03:33N 25°54' W 079°53'5 4.6
2014-Jul-23 02:33N 25°50' W 079°53'1514.9
2014-Jul-23 01:33N 25°35' W 079°56'  
Track history (hours):
 
Tides and Currents Weather Stations Pressure Air Temp Water Temp Dewpoint Dewpoint Depression Visibility Wind Speed Wind Dir Waves Ship Positions

Eurus Lima (Liberia)

Last reported at 2014-Jul-24 10:18 UTC. Time now 2014-Aug-21 19:58 UTC.
Position N 25°21' W 080°02'.
Warning: this ship's position is 28 days out of date.

Type: Ship. MMSI: 636013342.

Date/timePositionNaut miles runAvg speedWind from/ knotsBaromVisibWave heightAir tempDewpointWater temp
2014-Jul-24 10:18N 25°21' W 080°02'1216.2
2014-Jul-24 09:33N 25°33' W 080°02'1716.7
2014-Jul-24 08:33N 25°50' W 080°03'1515.2
2014-Jul-24 07:34N 26°05' W 080°04'3 2.2
2014-Jul-24 06:25N 26°05' W 080°07'0 0.0
2014-Jul-24 05:31N 26°05' W 080°07'0 0.0
2014-Jul-24 04:27N 26°05' W 080°07'0 0.0
2014-Jul-24 03:33N 26°05' W 080°07'0 0.0
2014-Jul-24 02:32N 26°05' W 080°07'0 0.0
2014-Jul-24 01:23N 26°05' W 080°07'0 0.0
2014-Jul-24 00:31N 26°05' W 080°07'0 0.0
2014-Jul-23 23:28N 26°05' W 080°07'0 0.0
2014-Jul-23 22:30N 26°05' W 080°07'0 0.0
2014-Jul-23 21:30N 26°05' W 080°07'0 0.0
2014-Jul-23 20:33N 26°05' W 080°07'0 0.0
2014-Jul-23 19:32N 26°05' W 080°07'0 0.0
2014-Jul-23 18:23N 26°05' W 080°07'0 0.0
2014-Jul-23 17:31N 26°05' W 080°07'0 0.0
2014-Jul-23 16:25N 26°05' W 080°07'0 0.0
2014-Jul-23 15:18N 26°05' W 080°07'0 0.0
2014-Jul-23 14:30N 26°05' W 080°07'0 0.0
2014-Jul-23 13:33N 26°05' W 080°07'0 0.0
2014-Jul-23 12:32N 26°05' W 080°07'0 0.0
2014-Jul-23 11:25N 26°05' W 080°07'0 0.0
2014-Jul-23 10:31N 26°05' W 080°07'0 0.0
2014-Jul-23 09:25N 26°05' W 080°07'1 0.8
2014-Jul-23 08:34N 26°06' W 080°07'5 5.0
2014-Jul-23 07:33N 26°05' W 080°01'7 7.5
2014-Jul-23 06:34N 26°08' W 079°54'5 4.6
2014-Jul-23 05:34N 26°03' W 079°53'4 4.5
2014-Jul-23 04:33N 25°59' W 079°53'4 4.4
2014-Jul-23 03:33N 25°54' W 079°53'5 4.6
2014-Jul-23 02:33N 25°50' W 079°53'1514.9
2014-Jul-23 01:33N 25°35' W 079°56'  

Dump ship's entire track history